Melrose, Connecticut
Current Conditions -  °F | °C
As of 3:51 PM on Tuesday 21 Oct 2014 (Local Time) from KBDL Reporting Station
Scattered Clouds Scattered Clouds  
Wind Chill: 66°   Ceiling: Unl
Heat Index: 66°   Visibility: 10mi
Dew Point: 49°   Wind: 7mph
Humidity: 54%   Direction: 360°N
Pressure: 29.86"   Gusts: NA
Location:  41.94°N, 72.52°W
Report Text: KBDL 211951Z 36006KT 10SM FEW045 SCT085 19/09 A2986 RMK AO2 SLP111 T01890094
Loading
Personal Weather Stations






























Interactive Weather Map
Tropical Storm Tracking
New forecast layout! Learn more

10-Day Weather Forecast

Advertisements
Track Severe Weather on mobile